Inicio METAR Ruta Wind Satelite

Informe Meteorológico

Fecha: 2021/09/21 16:22:22 Local
2021.09.21 21:22 UTC


Operación:
SKPP 212100Z 22006KT 9000 VCSH BKN030 21/16 Q1017 RMK A3004 VCSH/N =